createdAt,value
2022-09-13T00:01:50.363Z,18.67
2022-09-13T00:06:52.699Z,18.20
2022-09-13T00:11:55.658Z,18.00
2022-09-13T00:16:58.042Z,16.27
2022-09-13T00:22:00.474Z,16.17
2022-09-13T00:27:02.977Z,16.30
2022-09-13T00:32:05.587Z,15.70
2022-09-13T00:37:09.049Z,16.37
2022-09-13T00:42:13.172Z,15.83
2022-09-13T00:47:38.455Z,17.40
2022-09-13T00:52:46.588Z,17.10
2022-09-13T00:57:50.214Z,16.33
2022-09-13T01:02:57.293Z,16.80
2022-09-13T01:08:01.055Z,17.73
2022-09-13T01:13:15.063Z,16.97
2022-09-13T01:18:17.707Z,16.93
2022-09-13T01:24:02.617Z,16.10
2022-09-13T01:29:19.974Z,14.90
2022-09-13T01:34:40.862Z,15.57
2022-09-13T01:39:50.814Z,15.03
2022-09-13T01:45:30.871Z,14.97
2022-09-13T01:50:39.163Z,14.73
2022-09-13T01:56:22.635Z,14.70
2022-09-13T02:01:31.548Z,15.70
2022-09-13T02:06:49.026Z,15.20
2022-09-13T02:11:59.947Z,15.13
2022-09-13T02:17:08.875Z,14.90
2022-09-13T02:22:15.529Z,14.70
2022-09-13T02:27:24.660Z,15.07
2022-09-13T02:32:36.295Z,14.63
2022-09-13T02:37:40.468Z,13.60
2022-09-13T02:42:53.072Z,14.30
2022-09-13T02:48:05.772Z,14.93
2022-09-13T02:53:27.916Z,13.00
2022-09-13T02:58:53.098Z,13.37
2022-09-13T03:03:55.520Z,16.70
2022-09-13T03:09:03.831Z,14.43
2022-09-13T03:14:21.179Z,12.90
2022-09-13T03:19:39.986Z,11.97
2022-09-13T03:25:00.953Z,11.80
2022-09-13T03:30:15.969Z,12.07
2022-09-13T03:35:30.336Z,13.30
2022-09-13T03:40:32.671Z,11.37
2022-09-13T03:45:50.096Z,11.20
2022-09-13T03:50:54.277Z,11.87
2022-09-13T03:55:56.850Z,11.30
2022-09-13T04:00:59.343Z,11.57
2022-09-13T04:06:01.837Z,9.90
2022-09-13T04:11:04.271Z,11.07
2022-09-13T04:16:07.483Z,9.47
2022-09-13T04:21:10.380Z,10.17
2022-09-13T04:26:12.834Z,11.37
2022-09-13T04:31:15.270Z,10.10
2022-09-13T04:36:17.802Z,10.63
2022-09-13T04:41:20.208Z,10.43
2022-09-13T04:46:22.555Z,11.47
2022-09-13T04:51:25.244Z,10.40
2022-09-13T04:56:27.950Z,9.90
2022-09-13T05:01:30.589Z,9.53
2022-09-13T05:06:33.001Z,10.30
2022-09-13T05:11:35.409Z,10.90
2022-09-13T05:16:38.162Z,12.30
2022-09-13T05:21:40.707Z,13.07
2022-09-13T05:26:43.203Z,14.23
2022-09-13T05:31:45.730Z,12.47
2022-09-13T05:36:54.049Z,11.90
2022-09-13T05:41:56.809Z,9.93
2022-09-13T05:46:59.116Z,11.27
2022-09-13T05:52:01.614Z,12.43
2022-09-13T05:57:04.358Z,12.60
2022-09-13T06:02:10.145Z,12.30
2022-09-13T06:07:12.694Z,12.80
2022-09-13T06:12:15.008Z,13.13
2022-09-13T06:17:17.406Z,13.03
2022-09-13T06:22:20.044Z,13.33
2022-09-13T06:27:22.366Z,12.63
2022-09-13T06:32:24.696Z,12.77
2022-09-13T06:37:33.082Z,13.10
2022-09-13T06:42:36.785Z,13.60
2022-09-13T06:47:39.118Z,13.30
2022-09-13T06:52:41.476Z,13.30
2022-09-13T06:57:43.850Z,13.40
2022-09-13T07:02:51.436Z,13.07
2022-09-13T07:07:53.736Z,12.73
2022-09-13T07:12:56.044Z,12.37
2022-09-13T07:17:58.525Z,13.13
2022-09-13T07:23:01.243Z,12.23
2022-09-13T07:28:03.731Z,12.47
2022-09-13T07:33:06.175Z,11.77
2022-09-13T07:38:08.528Z,12.70
2022-09-13T07:43:10.880Z,11.93
2022-09-13T07:48:13.329Z,12.60
2022-09-13T07:53:15.776Z,12.33
2022-09-13T07:58:18.942Z,10.83
2022-09-13T08:03:21.298Z,10.67
2022-09-13T08:08:23.654Z,10.13
2022-09-13T08:13:28.952Z,9.33
2022-09-13T08:18:31.917Z,7.77
2022-09-13T08:23:34.600Z,8.63
2022-09-13T08:28:41.268Z,8.23
2022-09-13T08:33:51.103Z,7.70
2022-09-13T08:38:59.690Z,7.83
2022-09-13T08:44:29.726Z,8.47
2022-09-13T08:49:40.365Z,8.30
2022-09-13T08:54:43.865Z,9.17
2022-09-13T09:00:20.515Z,8.47
2022-09-13T09:05:30.608Z,8.20
2022-09-13T09:10:39.550Z,7.97
2022-09-13T09:16:01.440Z,8.43
2022-09-13T09:21:04.614Z,9.90
2022-09-13T09:26:17.243Z,8.17
2022-09-13T09:31:22.518Z,10.03
2022-09-13T09:36:43.412Z,9.10
2022-09-13T09:41:46.146Z,8.90
2022-09-13T09:46:52.099Z,8.73
2022-09-13T09:51:56.591Z,8.73
2022-09-13T09:56:58.976Z,8.83
2022-09-13T10:02:11.910Z,8.50
2022-09-13T10:07:41.088Z,9.03
2022-09-13T10:12:43.649Z,9.33
2022-09-13T10:18:21.178Z,8.87
2022-09-13T10:23:31.141Z,8.53
2022-09-13T10:28:37.200Z,8.10
2022-09-13T10:34:00.814Z,8.02
2022-09-13T10:39:07.042Z,8.50
2022-09-13T10:44:45.370Z,7.90
2022-09-13T10:49:53.458Z,7.85
2022-09-13T10:54:56.207Z,9.00
2022-09-13T11:00:01.036Z,8.38
2022-09-13T11:05:30.701Z,7.72
2022-09-13T11:10:44.885Z,8.32
2022-09-13T11:15:53.250Z,7.85
2022-09-13T11:21:18.375Z,7.53
2022-09-13T11:26:51.355Z,7.20
2022-09-13T11:32:39.242Z,7.25
2022-09-13T11:38:19.150Z,7.00
2022-09-13T11:43:40.016Z,7.35
2022-09-13T11:49:04.970Z,8.05
2022-09-13T11:54:16.243Z,9.10
2022-09-13T12:00:12.444Z,9.23
2022-09-13T12:05:24.038Z,17.13
2022-09-13T12:10:56.203Z,14.93
2022-09-13T12:16:07.054Z,14.90
2022-09-13T12:21:15.571Z,10.85
2022-09-13T12:26:26.797Z,10.77
2022-09-13T12:31:32.470Z,10.38
2022-09-13T12:36:56.634Z,9.43
2022-09-13T12:42:26.583Z,11.18
2022-09-13T12:47:40.885Z,8.80
2022-09-13T12:53:19.449Z,8.90
2022-09-13T12:58:43.582Z,9.43
2022-09-13T13:03:51.579Z,10.20
2022-09-13T13:09:00.476Z,8.48
2022-09-13T13:14:09.456Z,8.88
2022-09-13T13:19:37.047Z,8.98
2022-09-13T13:24:48.403Z,9.07
2022-09-13T13:30:29.239Z,8.40
2022-09-13T13:35:32.526Z,9.70
2022-09-13T13:40:36.571Z,8.95
2022-09-13T13:45:56.042Z,9.98
2022-09-13T13:51:37.192Z,9.63
2022-09-13T13:56:48.931Z,10.55
2022-09-13T14:01:59.553Z,8.63
2022-09-13T14:07:20.290Z,7.70
2022-09-13T14:13:03.675Z,7.88
2022-09-13T14:18:23.264Z,8.40
2022-09-13T14:23:25.692Z,7.55
2022-09-13T14:28:28.466Z,7.97
2022-09-13T14:33:35.023Z,7.55
2022-09-13T14:38:37.787Z,7.65
2022-09-13T14:43:41.256Z,7.38
2022-09-13T14:49:01.317Z,8.30
2022-09-13T14:54:43.928Z,8.60
2022-09-13T14:59:50.491Z,7.97
2022-09-13T15:04:56.487Z,8.98
2022-09-13T15:10:09.567Z,9.88
2022-09-13T15:15:26.167Z,10.05
2022-09-13T15:21:03.830Z,7.97
2022-09-13T15:26:10.547Z,10.93
2022-09-13T15:31:22.371Z,10.50
2022-09-13T15:36:28.976Z,13.23
2022-09-13T15:41:33.740Z,14.32
2022-09-13T15:46:46.741Z,14.88
2022-09-13T15:51:54.950Z,12.65
2022-09-13T15:56:59.095Z,12.60
2022-09-13T16:02:09.095Z,12.48
2022-09-13T16:07:11.458Z,16.83
2022-09-13T16:12:14.476Z,22.20
2022-09-13T16:17:26.617Z,18.97
2022-09-13T16:22:29.048Z,15.80
2022-09-13T16:27:35.462Z,13.93
2022-09-13T16:32:37.807Z,14.93
2022-09-13T16:37:41.254Z,17.13
2022-09-13T16:42:43.613Z,23.83
2022-09-13T16:47:46.305Z,17.77
2022-09-13T16:52:48.632Z,22.50
2022-09-13T16:57:52.608Z,26.67
2022-09-13T17:02:56.702Z,19.43
2022-09-13T17:07:59.281Z,19.97
2022-09-13T17:13:01.843Z,15.17
2022-09-13T17:18:04.468Z,14.63
2022-09-13T17:23:06.841Z,14.97
2022-09-13T17:28:09.311Z,15.40
2022-09-13T17:33:12.404Z,15.67
2022-09-13T17:38:15.210Z,17.70
2022-09-13T17:43:17.587Z,17.50
2022-09-13T17:48:20.493Z,24.53
2022-09-13T17:53:22.847Z,23.07
2022-09-13T17:58:27.185Z,35.20
2022-09-13T18:03:30.951Z,86.53
2022-09-13T18:08:34.976Z,47.57
2022-09-13T18:13:38.204Z,80.27
2022-09-13T18:18:44.070Z,51.77
2022-09-13T18:23:52.217Z,53.00
2022-09-13T18:29:01.872Z,78.60
2022-09-13T18:34:06.956Z,65.83
2022-09-13T18:39:19.359Z,50.03
2022-09-13T18:44:21.751Z,33.27
2022-09-13T18:49:24.482Z,28.60
2022-09-13T18:54:26.871Z,23.83
2022-09-13T18:59:32.091Z,25.33
2022-09-13T19:04:37.057Z,30.50
2022-09-13T19:09:39.514Z,27.63
2022-09-13T19:14:41.968Z,24.50
2022-09-13T19:19:44.395Z,23.10
2022-09-13T19:24:48.459Z,22.43
2022-09-13T19:29:50.978Z,21.10
2022-09-13T19:34:53.353Z,19.73
2022-09-13T19:39:56.044Z,20.30
2022-09-13T19:44:58.411Z,24.27
2022-09-13T19:50:01.323Z,23.63
2022-09-13T19:55:04.445Z,22.53
2022-09-13T20:00:07.587Z,24.63
2022-09-13T20:05:10.021Z,26.07
2022-09-13T20:10:12.410Z,32.67
2022-09-13T20:15:14.854Z,25.67
2022-09-13T20:20:17.686Z,27.70
2022-09-13T20:25:20.139Z,25.50
2022-09-13T20:30:22.479Z,22.73
2022-09-13T20:35:24.983Z,24.77
2022-09-13T20:40:27.624Z,25.43
2022-09-13T20:45:30.138Z,23.33
2022-09-13T20:50:35.769Z,22.80
2022-09-13T20:55:38.115Z,20.87
2022-09-13T21:00:40.464Z,19.80
2022-09-13T21:05:43.378Z,21.00
2022-09-13T21:10:56.582Z,19.63
2022-09-13T21:16:23.381Z,18.20
2022-09-13T21:21:30.109Z,17.00
2022-09-13T21:26:33.224Z,17.80
2022-09-13T21:31:36.427Z,17.33
2022-09-13T21:36:39.292Z,17.33
2022-09-13T21:41:42.017Z,19.50
2022-09-13T21:46:46.461Z,18.63
2022-09-13T21:51:52.735Z,19.87
2022-09-13T21:56:55.390Z,20.50
2022-09-13T22:01:58.296Z,20.90
2022-09-13T22:07:00.755Z,20.57
2022-09-13T22:12:03.373Z,19.17
2022-09-13T22:17:05.862Z,17.90
2022-09-13T22:22:08.270Z,16.03
2022-09-13T22:27:10.654Z,14.63
2022-09-13T22:32:13.173Z,15.37
2022-09-13T22:37:15.745Z,14.30
2022-09-13T22:42:18.069Z,18.03
2022-09-13T22:47:20.545Z,18.93
2022-09-13T22:52:23.282Z,18.47
2022-09-13T22:57:25.693Z,17.53
2022-09-13T23:02:28.042Z,22.17
2022-09-13T23:07:30.508Z,20.47
2022-09-13T23:12:32.845Z,18.90
2022-09-13T23:17:35.219Z,18.80
2022-09-13T23:22:37.771Z,18.23
2022-09-13T23:27:40.238Z,17.17
2022-09-13T23:32:42.584Z,16.00
2022-09-13T23:37:48.627Z,15.80
2022-09-13T23:42:51.023Z,15.93
2022-09-13T23:47:53.423Z,16.53
2022-09-13T23:52:56.026Z,15.37
2022-09-13T23:57:58.567Z,15.47
